Time;durP1;ratioP1;P1;durP2;ratioP2;P2;SDS_P1;SDS_P2;PMS_P1;PMS_P2;Temp;Humidity;BMP_temperature;BMP_pressure;BME280_temperature;BME280_humidity;BME280_pressure;Samples;Min_cycle;Max_cycle;Signal;HPM_P1;HPM_P2
2023/06/26 00:04:22;;;;;;;3.40;3.10;;;27.00;57.00;;;;;;222217;1260;22540;-52
2023/06/26 00:09:29;;;;;;;3.70;3.40;;;26.90;57.30;;;;;;222214;1266;22533;-55
2023/06/26 00:14:35;;;;;;;4.00;3.70;;;26.90;57.40;;;;;;221992;1267;24177;-53
2023/06/26 00:19:39;;;;;;;5.30;3.20;;;26.90;57.30;;;;;;221771;1257;26078;-53
2023/06/26 00:24:46;;;;;;;3.60;3.30;;;26.90;57.40;;;;;;222273;1268;24045;-51
2023/06/26 00:29:52;;;;;;;4.00;3.70;;;26.80;57.60;;;;;;222619;1254;24215;-52
2023/06/26 00:34:56;;;;;;;3.90;3.30;;;26.70;57.70;;;;;;222099;1263;22520;-51
2023/06/26 00:40:01;;;;;;;3.50;3.20;;;26.60;57.70;;;;;;221989;1261;22523;-52
2023/06/26 00:45:07;;;;;;;3.50;3.30;;;26.60;58.30;;;;;;222114;1259;24206;-53
2023/06/26 00:50:11;;;;;;;3.50;3.20;;;26.50;58.00;;;;;;222406;1256;24170;-53
2023/06/26 00:55:16;;;;;;;3.30;3.00;;;26.60;58.00;;;;;;222125;1260;24243;-54
2023/06/26 01:00:20;;;;;;;3.20;3.00;;;26.60;58.10;;;;;;222190;1260;22538;-52
2023/06/26 01:05:26;;;;;;;3.50;3.20;;;26.50;58.30;;;;;;222023;1254;22634;-54
2023/06/26 01:10:31;;;;;;;3.50;3.20;;;26.50;58.20;;;;;;221877;1261;25088;-54
2023/06/26 01:15:36;;;;;;;3.20;2.90;;;26.50;58.20;;;;;;221652;1263;22509;-51
2023/06/26 01:20:42;;;;;;;3.60;3.30;;;26.60;57.90;;;;;;230290;1263;22113;-51
2023/06/26 01:26:15;;;;;;;3.90;3.60;;;26.60;57.90;;;;;;230377;1262;22121;-53
2023/06/26 01:31:20;;;;;;;3.30;3.10;;;27.00;57.20;;;;;;222069;1260;25239;-54
2023/06/26 01:36:25;;;;;;;3.30;3.00;;;26.80;57.50;;;;;;222112;1263;22704;-51
2023/06/26 01:41:29;;;;;;;3.00;2.80;;;26.70;57.80;;;;;;221945;1260;22524;-56
2023/06/26 01:46:42;;;;;;;3.50;3.30;;;26.60;58.00;;;;;;222682;1263;25313;-51
2023/06/26 01:52:08;;;;;;;3.10;2.90;;;26.50;58.30;;;;;;221944;1261;25259;-53
2023/06/26 01:57:13;;;;;;;3.80;3.40;;;26.60;58.30;;;;;;221944;1260;22924;-54
2023/06/26 02:02:17;;;;;;;3.40;3.20;;;26.50;58.40;;;;;;221897;1258;22567;-55
2023/06/26 02:07:21;;;;;;;3.60;3.30;;;26.40;58.70;;;;;;222292;1262;22535;-53
2023/06/26 02:12:26;;;;;;;3.20;2.90;;;26.50;58.30;;;;;;221920;1266;24215;-56
2023/06/26 02:17:30;;;;;;;3.20;3.00;;;26.40;58.50;;;;;;221841;1260;221814;-53
2023/06/26 02:22:35;;;;;;;3.40;3.20;;;26.40;58.50;;;;;;222051;1266;24212;-51
2023/06/26 02:27:39;;;;;;;3.60;3.30;;;26.40;58.60;;;;;;222194;1254;24401;-52
2023/06/26 02:32:43;;;;;;;4.30;3.10;;;26.40;58.60;;;;;;222153;1261;25236;-53
2023/06/26 02:37:47;;;;;;;3.10;2.90;;;26.50;58.70;;;;;;221985;1260;22646;-52
2023/06/26 02:42:51;;;;;;;3.80;3.40;;;26.30;59.00;;;;;;221898;1260;22976;-53
2023/06/26 02:47:56;;;;;;;3.30;3.10;;;26.50;58.60;;;;;;222064;1258;24960;-53
2023/06/26 02:53:01;;;;;;;4.00;3.30;;;26.40;58.90;;;;;;222033;1268;22510;-52
2023/06/26 02:58:05;;;;;;;3.40;3.20;;;26.30;58.70;;;;;;222231;1266;22522;-52
2023/06/26 03:03:10;;;;;;;3.40;3.20;;;26.20;59.30;;;;;;222451;1267;25246;-52
2023/06/26 03:08:14;;;;;;;3.90;2.80;;;26.20;59.10;;;;;;222421;1254;22514;-52
2023/06/26 03:13:18;;;;;;;3.80;3.40;;;26.30;59.40;;;;;;230393;1261;22124;-53
2023/06/26 03:18:21;;;;;;;2.80;2.50;;;26.40;58.70;;;;;;230239;1262;22279;-53
2023/06/26 03:23:25;;;;;;;3.30;3.00;;;26.50;58.40;;;;;;229220;1267;26734;-52
2023/06/26 03:28:31;;;;;;;3.60;3.30;;;26.60;57.90;;;;;;227688;1266;24147;-53
2023/06/26 03:33:35;;;;;;;3.20;3.00;;;26.50;58.20;;;;;;222299;1268;22522;-51
2023/06/26 03:38:39;;;;;;;3.00;2.80;;;26.30;59.00;;;;;;222160;1260;22894;-53
2023/06/26 03:43:44;;;;;;;2.90;2.70;;;26.20;59.10;;;;;;222149;1264;22637;-52
2023/06/26 03:48:55;;;;;;;3.00;2.80;;;26.20;59.30;;;;;;222327;1264;25213;-51
2023/06/26 03:53:59;;;;;;;3.40;3.20;;;26.10;59.50;;;;;;222110;1261;22508;-53
2023/06/26 03:59:03;;;;;;;3.60;3.30;;;26.00;59.50;;;;;;222121;1268;26621;-52
2023/06/26 04:04:08;;;;;;;3.10;2.80;;;26.10;59.40;;;;;;222476;1268;24212;-51
2023/06/26 04:09:13;;;;;;;4.50;2.90;;;26.10;59.40;;;;;;230258;1268;22193;-53
2023/06/26 04:14:17;;;;;;;3.10;2.80;;;26.20;59.10;;;;;;228058;1269;22544;-53
2023/06/26 04:19:21;;;;;;;3.00;2.80;;;26.30;58.90;;;;;;222147;1269;24241;-53
2023/06/26 04:24:25;;;;;;;2.90;2.70;;;26.30;59.00;;;;;;230149;1260;22406;-52
2023/06/26 04:29:29;;;;;;;3.20;3.00;;;26.30;59.00;;;;;;227793;1267;22514;-54
2023/06/26 04:34:35;;;;;;;3.30;3.10;;;26.30;58.80;;;;;;221835;1261;22566;-53
2023/06/26 04:39:39;;;;;;;3.10;2.90;;;26.30;58.80;;;;;;222196;1260;25559;-54
2023/06/26 04:44:44;;;;;;;3.50;3.20;;;26.10;59.10;;;;;;222109;1267;22522;-52
2023/06/26 04:49:48;;;;;;;4.20;2.70;;;26.10;59.50;;;;;;222122;1260;22511;-53
2023/06/26 04:54:52;;;;;;;3.40;3.10;;;26.10;59.50;;;;;;222204;1263;22512;-50
2023/06/26 04:59:56;;;;;;;3.30;3.00;;;26.10;59.60;;;;;;222399;1263;24313;-53
2023/06/26 05:05:01;;;;;;;3.00;2.80;;;26.10;59.50;;;;;;222045;1250;24184;-54
2023/06/26 05:10:05;;;;;;;3.00;2.80;;;26.00;59.50;;;;;;222036;1268;22755;-51
2023/06/26 05:15:09;;;;;;;4.40;2.90;;;26.00;59.70;;;;;;222093;1267;22555;-52
2023/06/26 05:20:13;;;;;;;3.70;3.40;;;26.00;59.90;;;;;;222504;1260;22529;-50
2023/06/26 05:25:21;;;;;;;3.50;3.20;;;26.10;60.20;;;;;;221852;1268;22523;-50
2023/06/26 05:30:25;;;;;;;3.10;2.90;;;26.10;60.30;;;;;;222113;1261;23894;-53
2023/06/26 05:35:31;;;;;;;4.30;2.90;;;26.20;60.10;;;;;;222362;1260;24330;-54
2023/06/26 05:40:35;;;;;;;3.20;2.90;;;26.20;59.70;;;;;;222553;1245;22562;-49
2023/06/26 05:45:40;;;;;;;7.20;4.10;;;26.10;60.40;;;;;;222346;1260;24150;-48
2023/06/26 05:50:45;;;;;;;3.60;3.30;;;26.20;60.40;;;;;;222449;1261;22563;-49
2023/06/26 05:55:49;;;;;;;5.60;3.90;;;26.30;60.70;;;;;;222117;1260;24233;-47
2023/06/26 06:00:53;;;;;;;4.50;3.50;;;26.30;60.60;;;;;;222403;1264;24257;-50
2023/06/26 06:05:57;;;;;;;6.30;3.60;;;26.30;60.40;;;;;;222053;1266;22524;-47
2023/06/26 06:11:02;;;;;;;5.40;3.80;;;26.40;60.20;;;;;;222295;1268;22560;-47
2023/06/26 06:16:06;;;;;;;4.60;3.50;;;26.40;60.90;;;;;;222349;1264;24224;-50
2023/06/26 06:21:10;;;;;;;4.40;3.80;;;26.40;60.80;;;;;;222530;1264;24308;-47
2023/06/26 06:26:14;;;;;;;9.70;4.70;;;26.40;61.00;;;;;;222736;1261;24099;-51
2023/06/26 06:31:19;;;;;;;13.10;4.10;;;26.50;61.40;;;;;;222651;1261;22520;-47
2023/06/26 06:36:23;;;;;;;16.90;6.10;;;26.50;60.80;;;;;;222521;1254;22628;-49
2023/06/26 06:41:27;;;;;;;16.20;5.00;;;26.50;61.10;;;;;;222715;1261;22504;-51
2023/06/26 06:46:31;;;;;;;14.40;4.40;;;26.60;60.60;;;;;;222098;1257;22522;-49
2023/06/26 06:51:35;;;;;;;21.60;7.90;;;26.50;60.50;;;;;;230374;1264;22138;-48
2023/06/26 06:56:40;;;;;;;11.30;5.70;;;26.60;59.70;;;;;;223870;1250;25223;-53
2023/06/26 07:01:44;;;;;;;8.80;5.10;;;26.80;59.50;;;;;;222001;1254;25615;-48
2023/06/26 07:06:48;;;;;;;13.20;5.40;;;26.70;59.20;;;;;;222146;1264;24216;-49
2023/06/26 07:11:53;;;;;;;8.90;5.90;;;26.60;59.60;;;;;;221958;1267;22598;-49
2023/06/26 07:16:57;;;;;;;6.10;5.10;;;26.60;59.70;;;;;;222160;1264;22769;-49
2023/06/26 07:22:01;;;;;;;5.10;4.60;;;26.50;59.80;;;;;;222613;1264;22526;-49
2023/06/26 07:27:05;;;;;;;8.40;5.30;;;26.70;59.60;;;;;;222672;1264;22511;-54
2023/06/26 07:32:12;;;;;;;6.70;5.30;;;26.80;59.50;;;;;;221916;1258;22514;-49
2023/06/26 07:37:18;;;;;;;6.60;4.80;;;26.70;60.00;;;;;;222258;1263;22814;-50
2023/06/26 07:42:23;;;;;;;5.30;4.70;;;26.70;59.80;;;;;;222029;1263;24177;-47
2023/06/26 07:47:27;;;;;;;5.80;5.00;;;26.70;59.80;;;;;;222154;1263;23934;-49
2023/06/26 07:52:31;;;;;;;5.50;4.70;;;26.80;59.50;;;;;;222410;1264;25248;-47
2023/06/26 07:57:36;;;;;;;4.70;4.30;;;26.80;59.30;;;;;;222425;1263;24212;-51
2023/06/26 08:02:40;;;;;;;7.30;4.80;;;26.80;59.20;;;;;;222343;1264;25191;-49
2023/06/26 08:07:44;;;;;;;5.20;4.80;;;26.80;59.10;;;;;;222444;1253;24228;-47
2023/06/26 08:12:50;;;;;;;5.50;5.00;;;26.80;59.20;;;;;;222262;1263;22543;-52
2023/06/26 08:17:54;;;;;;;5.40;4.90;;;26.90;59.40;;;;;;222952;1263;25268;-51
2023/06/26 08:22:59;;;;;;;4.80;4.40;;;26.90;59.10;;;;;;222257;1263;24181;-51
2023/06/26 08:28:03;;;;;;;5.90;5.30;;;26.90;58.90;;;;;;222146;1263;24246;-50
2023/06/26 08:33:12;;;;;;;6.30;4.70;;;26.80;58.90;;;;;;222562;1263;22575;-51
2023/06/26 08:38:16;;;;;;;6.80;5.30;;;26.90;59.30;;;;;;222342;1263;22639;-49
2023/06/26 08:43:26;;;;;;;5.10;4.70;;;26.80;58.80;;;;;;222101;1253;24300;-51
2023/06/26 08:48:36;;;;;;;5.80;5.10;;;26.90;58.40;;;;;;222706;1266;25316;-52
2023/06/26 08:53:50;;;;;;;5.50;5.00;;;26.90;58.50;;;;;;222318;1261;25455;-51
2023/06/26 08:58:55;;;;;;;5.10;4.80;;;27.00;58.70;;;;;;222275;1260;22534;-51
2023/06/26 09:03:59;;;;;;;5.60;5.10;;;26.90;59.00;;;;;;222271;1260;22537;-48
2023/06/26 09:09:03;;;;;;;5.30;4.90;;;27.00;58.40;;;;;;222570;1261;22518;-49
2023/06/26 09:14:10;;;;;;;6.00;5.30;;;26.90;58.70;;;;;;222134;1264;25730;-55
2023/06/26 09:19:14;;;;;;;5.70;5.20;;;26.90;58.50;;;;;;222450;1260;22505;-48
2023/06/26 09:24:18;;;;;;;5.80;5.30;;;27.00;58.70;;;;;;222543;1253;22721;-53
2023/06/26 09:29:23;;;;;;;5.00;4.50;;;27.00;58.60;;;;;;222677;1260;22775;-51
2023/06/26 09:34:31;;;;;;;5.90;5.40;;;27.00;58.50;;;;;;222649;1260;25293;-50
2023/06/26 09:39:35;;;;;;;5.00;4.60;;;27.00;58.60;;;;;;222680;1262;22653;-52
2023/06/26 09:44:50;;;;;;;8.60;7.90;;;27.10;58.50;;;;;;222582;1253;22518;-53
2023/06/26 09:49:55;;;;;;;7.40;6.70;;;27.10;57.50;;;;;;222785;1260;22511;-54
2023/06/26 09:55:09;;;;;;;6.70;6.00;;;27.10;58.30;;;;;;222585;1263;24222;-56
2023/06/26 10:00:14;;;;;;;6.20;5.80;;;27.10;58.20;;;;;;222834;1259;23001;-56
2023/06/26 10:05:19;;;;;;;6.00;5.50;;;27.10;58.20;;;;;;222636;1267;22537;-56
2023/06/26 10:10:25;;;;;;;6.40;5.90;;;27.20;58.10;;;;;;222408;1266;25603;-56
2023/06/26 10:15:30;;;;;;;6.60;6.00;;;27.10;58.00;;;;;;222517;1267;22850;-55
2023/06/26 10:20:35;;;;;;;6.10;5.60;;;27.20;58.40;;;;;;221593;1266;22640;-56
2023/06/26 10:25:42;;;;;;;6.10;5.70;;;27.20;57.90;;;;;;221496;1259;22544;-55
2023/06/26 10:30:50;;;;;;;6.50;5.90;;;27.20;57.70;;;;;;221591;1266;24309;-56
2023/06/26 10:36:13;;;;;;;4.90;4.60;;;27.20;57.60;;;;;;221572;1269;25441;-55
2023/06/26 10:41:25;;;;;;;5.80;5.30;;;27.30;57.60;;;;;;221581;1266;22538;-56
2023/06/26 10:46:34;;;;;;;5.60;5.20;;;27.40;57.90;;;;;;221547;1266;24228;-56
2023/06/26 10:51:45;;;;;;;5.30;4.90;;;27.40;57.60;;;;;;222205;1250;24333;-55
2023/06/26 10:56:58;;;;;;;5.40;5.00;;;27.40;57.60;;;;;;222492;1263;22633;-57
2023/06/26 11:02:07;;;;;;;6.00;5.50;;;27.40;57.60;;;;;;222450;1264;22511;-53
2023/06/26 11:07:59;;;;;;;6.10;5.70;;;27.40;57.20;;;;;;222355;1263;22785;-56
2023/06/26 11:13:05;;;;;;;5.10;4.80;;;27.40;57.50;;;;;;222477;1263;24111;-54
2023/06/26 11:18:09;;;;;;;5.40;5.00;;;27.50;56.90;;;;;;222389;1253;25488;-54
2023/06/26 11:23:21;;;;;;;6.50;4.90;;;27.50;57.00;;;;;;222359;1254;24176;-56
2023/06/26 11:28:27;;;;;;;5.20;4.90;;;27.50;57.20;;;;;;222296;1263;23863;-54
2023/06/26 11:33:31;;;;;;;5.20;4.60;;;27.50;57.30;;;;;;222195;1266;22752;-56
2023/06/26 11:38:39;;;;;;;5.40;5.00;;;27.60;57.50;;;;;;222423;1263;22517;-55
2023/06/26 11:43:43;;;;;;;5.00;4.60;;;27.60;57.90;;;;;;222028;1266;22541;-54
2023/06/26 11:48:48;;;;;;;4.90;4.50;;;27.60;58.00;;;;;;222546;1263;22494;-57
2023/06/26 11:53:53;;;;;;;5.10;4.70;;;27.60;57.60;;;;;;222648;1268;22659;-57
2023/06/26 11:59:04;;;;;;;5.00;4.60;;;27.60;57.60;;;;;;222086;1247;24230;-55
2023/06/26 12:04:17;;;;;;;4.70;4.40;;;27.70;57.70;;;;;;222488;1259;22503;-55
2023/06/26 12:09:21;;;;;;;4.50;4.20;;;27.70;58.10;;;;;;222711;1263;22508;-59
2023/06/26 12:14:28;;;;;;;5.90;5.20;;;27.70;57.70;;;;;;222426;1246;25226;-58
2023/06/26 12:19:33;;;;;;;4.90;4.60;;;27.70;57.80;;;;;;222552;1247;23795;-56
2023/06/26 12:24:38;;;;;;;4.80;4.50;;;27.80;57.80;;;;;;222622;1261;24250;-56
2023/06/26 12:29:51;;;;;;;4.90;4.60;;;27.70;57.80;;;;;;222398;1266;22522;-55
2023/06/26 12:34:57;;;;;;;4.80;4.40;;;27.80;58.40;;;;;;222400;1268;22639;-56
2023/06/26 12:40:05;;;;;;;7.20;4.90;;;27.80;57.80;;;;;;222728;1261;24304;-55
2023/06/26 12:45:14;;;;;;;5.20;4.80;;;27.80;57.60;;;;;;222633;1251;22968;-56
2023/06/26 12:50:21;;;;;;;5.00;4.70;;;27.90;57.50;;;;;;222753;1253;24263;-56
2023/06/26 12:55:26;;;;;;;4.90;4.60;;;27.90;57.30;;;;;;222558;1259;22552;-57
2023/06/26 13:00:31;;;;;;;5.20;4.90;;;27.90;57.20;;;;;;222692;1253;24218;-55
2023/06/26 13:05:35;;;;;;;6.70;4.60;;;27.90;57.30;;;;;;222324;1264;22556;-54
2023/06/26 13:10:40;;;;;;;7.20;6.50;;;27.90;57.50;;;;;;222487;1264;25262;-56
2023/06/26 13:15:44;;;;;;;5.60;5.10;;;27.90;56.90;;;;;;222524;1253;24170;-47
2023/06/26 13:20:49;;;;;;;6.50;4.80;;;27.90;56.90;;;;;;222609;1264;22514;-50
2023/06/26 13:25:54;;;;;;;5.10;4.80;;;28.00;57.00;;;;;;222749;1267;25210;-51
2023/06/26 13:30:58;;;;;;;5.20;4.40;;;28.00;57.20;;;;;;222695;1260;24729;-51
2023/06/26 13:36:04;;;;;;;5.10;4.70;;;28.00;57.20;;;;;;222546;1261;22829;-49
2023/06/26 13:41:09;;;;;;;4.90;4.50;;;28.00;56.60;;;;;;222500;1254;22508;-48
2023/06/26 13:46:16;;;;;;;5.20;4.90;;;28.00;57.50;;;;;;222411;1263;24282;-50
2023/06/26 13:51:20;;;;;;;4.40;4.10;;;28.00;57.10;;;;;;222644;1253;25231;-45
2023/06/26 13:56:24;;;;;;;4.60;4.30;;;28.10;57.30;;;;;;222582;1257;22620;-46
2023/06/26 14:01:28;;;;;;;4.80;4.50;;;28.10;57.60;;;;;;222694;1257;25261;-44
2023/06/26 14:06:34;;;;;;;4.60;4.30;;;28.10;57.10;;;;;;222510;1250;22533;-50
2023/06/26 14:11:40;;;;;;;5.00;4.60;;;27.90;56.60;;;;;;222394;1250;24161;-47
2023/06/26 14:16:44;;;;;;;5.20;4.90;;;27.90;57.00;;;;;;222231;1266;295420;-48
2023/06/26 14:21:49;;;;;;;4.10;3.80;;;27.90;56.90;;;;;;222400;1264;23172;-48
2023/06/26 14:26:53;;;;;;;5.00;4.60;;;27.90;56.30;;;;;;222695;1258;25885;-45
2023/06/26 14:31:57;;;;;;;5.10;4.80;;;28.00;56.30;;;;;;222382;1246;23338;-48
2023/06/26 14:37:01;;;;;;;4.60;4.30;;;27.90;56.20;;;;;;222768;1256;23412;-47
2023/06/26 14:42:06;;;;;;;5.00;4.70;;;27.90;56.10;;;;;;222520;1257;24792;-47
2023/06/26 14:47:10;;;;;;;4.90;4.50;;;27.90;55.90;;;;;;222918;1260;22626;-46
2023/06/26 14:52:14;;;;;;;4.30;3.90;;;27.90;55.70;;;;;;222664;1259;22508;-47
2023/06/26 14:57:18;;;;;;;4.90;4.60;;;27.90;55.50;;;;;;222292;1260;22520;-48
2023/06/26 15:02:23;;;;;;;4.80;4.40;;;27.90;55.60;;;;;;222496;1260;23194;-49
2023/06/26 15:07:27;;;;;;;4.30;4.00;;;28.10;55.30;;;;;;222384;1253;22537;-48
2023/06/26 15:12:31;;;;;;;12.80;4.60;;;28.00;56.10;;;;;;222419;1256;24243;-48
2023/06/26 15:17:36;;;;;;;7.50;4.10;;;27.90;56.40;;;;;;222584;1253;22626;-45
2023/06/26 15:22:40;;;;;;;7.90;4.50;;;28.10;56.10;;;;;;222416;1247;22543;-49
2023/06/26 15:27:44;;;;;;;7.40;4.10;;;28.10;56.40;;;;;;222517;1260;24360;-45
2023/06/26 15:32:48;;;;;;;5.80;5.00;;;28.10;59.30;;;;;;222554;1254;24743;-48
2023/06/26 15:37:53;;;;;;;6.20;5.10;;;28.20;58.30;;;;;;222786;1254;22746;-49
2023/06/26 15:42:57;;;;;;;5.60;3.90;;;28.30;58.00;;;;;;222500;1254;22627;-48
2023/06/26 15:48:02;;;;;;;5.50;4.80;;;28.20;57.90;;;;;;222382;1256;22592;-47
2023/06/26 15:53:06;;;;;;;4.30;3.90;;;28.10;58.00;;;;;;222527;1253;24174;-47
2023/06/26 15:58:10;;;;;;;5.00;4.50;;;28.10;59.20;;;;;;222427;1261;22769;-45
2023/06/26 16:03:15;;;;;;;4.80;3.80;;;28.10;58.90;;;;;;222273;1254;22502;-42
2023/06/26 16:08:20;;;;;;;4.20;3.90;;;28.30;58.20;;;;;;222704;1260;22559;-44
2023/06/26 16:13:25;;;;;;;9.00;4.70;;;28.50;57.70;;;;;;222457;1261;22525;-48
2023/06/26 16:18:29;;;;;;;4.60;4.20;;;28.60;57.90;;;;;;222522;1264;25550;-50
2023/06/26 16:23:33;;;;;;;4.50;4.10;;;28.60;57.40;;;;;;222268;1260;22508;-49
2023/06/26 16:28:38;;;;;;;4.80;4.00;;;28.70;57.50;;;;;;222487;1259;25251;-40
2023/06/26 16:33:44;;;;;;;5.60;3.90;;;28.60;57.60;;;;;;222363;1260;22528;-52
2023/06/26 16:38:51;;;;;;;4.40;4.00;;;28.70;57.60;;;;;;222624;1264;23760;-44
2023/06/26 16:43:55;;;;;;;4.20;3.30;;;28.70;57.70;;;;;;222423;1259;22911;-43
2023/06/26 16:48:59;;;;;;;4.50;3.80;;;28.70;58.00;;;;;;222346;1260;23102;-53
2023/06/26 16:54:04;;;;;;;4.10;3.80;;;28.80;57.60;;;;;;222481;1261;22573;-43
2023/06/26 16:59:09;;;;;;;4.80;3.70;;;28.80;57.90;;;;;;222421;1256;24598;-44
2023/06/26 17:04:13;;;;;;;4.40;4.00;;;28.90;57.60;;;;;;222340;1257;24206;-46
2023/06/26 17:09:17;;;;;;;7.30;4.00;;;28.90;57.50;;;;;;222382;1267;24331;-44
2023/06/26 17:14:22;;;;;;;9.90;3.50;;;28.80;56.10;;;;;;222505;1263;22518;-45
2023/06/26 17:19:26;;;;;;;4.30;4.00;;;28.70;55.60;;;;;;222340;1268;24215;-44
2023/06/26 17:24:34;;;;;;;7.90;4.20;;;28.60;55.80;;;;;;222561;1253;24186;-44
2023/06/26 17:29:41;;;;;;;;;;;28.50;56.10;;;;;;222510;1260;24212;-47
2023/06/26 17:34:45;;;;;;;4.70;4.20;;;28.40;56.30;;;;;;222387;1265;23882;-47
2023/06/26 17:39:51;;;;;;;4.80;4.40;;;28.40;56.30;;;;;;222573;1260;24189;-47
2023/06/26 17:44:55;;;;;;;7.00;4.10;;;28.40;56.30;;;;;;221848;1250;24342;-49
2023/06/26 17:49:59;;;;;;;4.00;3.70;;;28.40;56.70;;;;;;221828;1257;23020;-48
2023/06/26 17:55:04;;;;;;;4.40;4.10;;;28.50;56.70;;;;;;221953;1253;22597;-49
2023/06/26 18:00:10;;;;;;;7.90;4.70;;;28.40;56.10;;;;;;221996;1264;25946;-47
2023/06/26 18:05:17;;;;;;;6.00;4.10;;;28.40;56.10;;;;;;222183;1254;22803;-49
2023/06/26 18:10:21;;;;;;;4.00;3.80;;;28.30;56.10;;;;;;222104;1270;24188;-49
2023/06/26 18:15:26;;;;;;;4.80;4.50;;;28.30;56.00;;;;;;222007;1262;24190;-49
2023/06/26 18:20:30;;;;;;;5.40;4.10;;;28.30;56.10;;;;;;222190;1260;22640;-53
2023/06/26 18:25:34;;;;;;;7.10;4.40;;;28.30;56.50;;;;;;222284;1255;24804;-48
2023/06/26 18:30:38;;;;;;;5.30;4.80;;;28.30;56.10;;;;;;222270;1263;22861;-48
2023/06/26 18:35:43;;;;;;;8.40;4.70;;;28.30;57.00;;;;;;222349;1260;22514;-48
2023/06/26 18:40:50;;;;;;;7.40;4.70;;;28.30;56.50;;;;;;222354;1262;22762;-47
2023/06/26 18:45:54;;;;;;;8.50;4.60;;;28.20;56.70;;;;;;222249;1263;22637;-48
2023/06/26 18:50:58;;;;;;;7.70;4.50;;;28.20;56.50;;;;;;222304;1261;24163;-47
2023/06/26 18:56:03;;;;;;;4.90;4.50;;;28.10;56.50;;;;;;221927;1267;25258;-54
2023/06/26 19:01:07;;;;;;;5.50;5.00;;;28.10;56.30;;;;;;222352;1269;26285;-54
2023/06/26 19:06:12;;;;;;;8.70;4.90;;;27.70;54.70;;;;;;222476;1266;23821;-54
2023/06/26 19:11:17;;;;;;;6.10;4.90;;;27.10;52.60;;;;;;222502;1267;25305;-55
2023/06/26 19:16:22;;;;;;;10.10;4.80;;;26.60;51.80;;;;;;222475;1263;25472;-53
2023/06/26 19:21:27;;;;;;;10.40;4.20;;;26.30;51.00;;;;;;221944;1264;23014;-54
2023/06/26 19:26:34;;;;;;;5.00;4.50;;;26.00;49.90;;;;;;222067;1268;22627;-50
2023/06/26 19:31:40;;;;;;;7.00;4.10;;;25.90;48.80;;;;;;222101;1250;22530;-51
2023/06/26 19:36:44;;;;;;;4.70;4.30;;;25.60;48.00;;;;;;222201;1250;24154;-51
2023/06/26 19:41:49;;;;;;;10.20;4.50;;;25.40;47.40;;;;;;222437;1254;23958;-49
2023/06/26 19:46:54;;;;;;;12.60;4.70;;;25.50;47.30;;;;;;222345;1263;24033;-54
2023/06/26 19:51:59;;;;;;;11.50;5.30;;;25.40;47.90;;;;;;222552;1264;23081;-54
2023/06/26 19:57:04;;;;;;;6.60;5.10;;;25.50;48.10;;;;;;222327;1264;22582;-49
2023/06/26 20:02:10;;;;;;;7.10;5.40;;;25.60;46.40;;;;;;222488;1259;25255;-53
2023/06/26 20:07:14;;;;;;;8.60;5.20;;;25.20;47.40;;;;;;221907;1269;22505;-53
2023/06/26 20:12:19;;;;;;;5.60;4.70;;;25.10;48.80;;;;;;222187;1263;22758;-53
2023/06/26 20:17:23;;;;;;;7.50;4.90;;;25.90;47.60;;;;;;222214;1263;22677;-51
2023/06/26 20:22:28;;;;;;;6.70;4.80;;;26.40;47.20;;;;;;222261;1266;22513;-50
2023/06/26 20:27:32;;;;;;;8.20;4.30;;;26.60;48.80;;;;;;222143;1260;22513;-52
2023/06/26 20:32:36;;;;;;;4.80;3.50;;;26.40;52.50;;;;;;222128;1264;24339;-52
2023/06/26 20:37:40;;;;;;;6.40;4.00;;;26.10;57.00;;;;;;222208;1254;24193;-52
2023/06/26 20:42:45;;;;;;;7.80;4.20;;;26.20;57.10;;;;;;222134;1255;22534;-52
2023/06/26 20:47:50;;;;;;;7.30;4.00;;;26.40;60.80;;;;;;222413;1266;24151;-50
2023/06/26 20:52:55;;;;;;;13.70;4.00;;;26.50;60.50;;;;;;222321;1264;24243;-52
2023/06/26 20:57:59;;;;;;;4.80;3.20;;;26.70;60.20;;;;;;222378;1263;22599;-52
2023/06/26 21:03:03;;;;;;;5.70;3.30;;;26.60;60.00;;;;;;222532;1253;24699;-54
2023/06/26 21:08:08;;;;;;;5.80;3.50;;;26.70;60.70;;;;;;222385;1260;24202;-54
2023/06/26 21:13:12;;;;;;;4.60;3.70;;;26.70;60.60;;;;;;222495;1268;22605;-51
2023/06/26 21:18:17;;;;;;;10.30;3.80;;;26.80;60.20;;;;;;222533;1261;22518;-53
2023/06/26 21:23:21;;;;;;;7.10;3.90;;;26.80;62.60;;;;;;222162;1263;22798;-53
2023/06/26 21:28:25;;;;;;;5.20;3.40;;;26.80;61.60;;;;;;222250;1268;22776;-53
2023/06/26 21:33:30;;;;;;;6.30;4.00;;;26.80;61.00;;;;;;222694;1266;26487;-56
2023/06/26 21:38:34;;;;;;;5.80;3.30;;;26.90;60.40;;;;;;222341;1267;22549;-54
2023/06/26 21:43:38;;;;;;;7.80;3.30;;;26.80;60.60;;;;;;222520;1261;22528;-54
2023/06/26 21:48:43;;;;;;;5.10;3.10;;;26.80;61.30;;;;;;222279;1257;24176;-51
2023/06/26 21:53:48;;;;;;;6.60;3.50;;;26.70;61.00;;;;;;222477;1260;22757;-54
2023/06/26 21:58:52;;;;;;;6.10;3.60;;;26.70;60.70;;;;;;222465;1268;25461;-52
2023/06/26 22:03:56;;;;;;;7.40;4.20;;;26.70;60.70;;;;;;222439;1269;22614;-51
2023/06/26 22:09:01;;;;;;;3.80;3.50;;;26.60;61.90;;;;;;222323;1266;22766;-54
2023/06/26 22:14:05;;;;;;;5.00;3.50;;;26.50;61.70;;;;;;222359;1260;22530;-53
2023/06/26 22:19:09;;;;;;;4.30;4.00;;;26.60;62.00;;;;;;222437;1253;24192;-53
2023/06/26 22:24:13;;;;;;;8.10;4.20;;;26.50;62.00;;;;;;222293;1260;22687;-54
2023/06/26 22:29:18;;;;;;;7.40;3.80;;;26.60;62.00;;;;;;226282;1268;25033;-52
2023/06/26 22:34:22;;;;;;;4.30;3.90;;;26.70;62.10;;;;;;222597;1251;24221;-51
2023/06/26 22:39:26;;;;;;;4.70;3.90;;;26.70;62.10;;;;;;222396;1266;24326;-55
2023/06/26 22:44:30;;;;;;;4.80;3.90;;;26.60;62.20;;;;;;222437;1266;22780;-52
2023/06/26 22:49:35;;;;;;;5.00;4.40;;;26.50;62.50;;;;;;222414;1266;22508;-52
2023/06/26 22:54:39;;;;;;;5.30;4.60;;;26.50;63.00;;;;;;222289;1254;22525;-52
2023/06/26 22:59:43;;;;;;;7.00;4.80;;;26.40;63.80;;;;;;230131;1268;22338;-53
2023/06/26 23:04:48;;;;;;;6.80;4.80;;;26.50;63.10;;;;;;225886;1268;22521;-52
2023/06/26 23:09:52;;;;;;;5.10;4.40;;;26.60;62.50;;;;;;222272;1245;22528;-50
2023/06/26 23:14:56;;;;;;;4.40;4.10;;;26.50;62.90;;;;;;222210;1260;22528;-53
2023/06/26 23:20:00;;;;;;;5.60;4.60;;;26.50;63.20;;;;;;222456;1261;22764;-54
2023/06/26 23:25:05;;;;;;;6.50;5.10;;;26.40;63.70;;;;;;222439;1260;24211;-55
2023/06/26 23:30:11;;;;;;;6.90;5.00;;;26.40;63.50;;;;;;222437;1264;22914;-52
2023/06/26 23:35:15;;;;;;;4.40;4.00;;;26.50;63.40;;;;;;222551;1267;22511;-53
2023/06/26 23:40:25;;;;;;;5.30;4.80;;;26.50;63.80;;;;;;222300;1260;25284;-53
2023/06/26 23:45:33;;;;;;;5.50;4.70;;;26.40;63.70;;;;;;222509;1269;22551;-52
2023/06/26 23:50:37;;;;;;;5.50;5.00;;;26.40;63.50;;;;;;222707;1261;24171;-50
2023/06/26 23:55:41;;;;;;;5.60;5.00;;;26.40;63.60;;;;;;222450;1266;22640;-52
